Waterville, Maine
Current Conditions -  °F | °C
As of 5:15 AM on Saturday 22 Nov 2014 (Local Time) from KWVL Reporting Station
Clear Clear  
Wind Chill: 18°   Ceiling: Unl
Heat Index: 18°   Visibility: 10mi
Dew Point:   Wind: 3mph
Humidity: 58%   Direction: 210°SSW
Pressure: 30.26"   Gusts: NA
Location:  44.55°N, 69.63°W
Report Text: KWVL 221015Z 21003KT 10SM CLR M08/M15 A3026 RMK AO1
Loading
Personal Weather Stations






























Interactive Weather Map New forecast layout! Learn more

10-Day Weather Forecast

Advertisements
Track Severe Weather on mobile